createdAt,value
2019-02-14T00:02:16.567Z,28.93
2019-02-14T00:04:47.898Z,29.60
2019-02-14T00:07:19.253Z,31.00
2019-02-14T00:09:50.458Z,31.53
2019-02-14T00:12:21.728Z,29.63
2019-02-14T00:14:53.052Z,28.63
2019-02-14T00:17:24.297Z,30.47
2019-02-14T00:19:57.830Z,23.30
2019-02-14T00:22:29.200Z,27.50
2019-02-14T00:25:00.498Z,30.73
2019-02-14T00:27:31.774Z,24.63
2019-02-14T00:30:03.095Z,27.73
2019-02-14T00:32:34.479Z,24.77
2019-02-14T00:35:06.589Z,30.60
2019-02-14T00:37:38.829Z,24.97
2019-02-14T00:40:10.122Z,30.93
2019-02-14T00:42:41.431Z,34.57
2019-02-14T00:45:12.654Z,29.33
2019-02-14T00:47:43.900Z,24.23
2019-02-14T00:50:15.220Z,31.43
2019-02-14T00:52:46.567Z,31.80
2019-02-14T00:55:17.953Z,18.07
2019-02-14T00:57:50.320Z,31.33
2019-02-14T01:00:21.690Z,20.73
2019-02-14T01:02:52.953Z,25.43
2019-02-14T01:05:24.253Z,31.27
2019-02-14T01:07:55.539Z,29.47
2019-02-14T01:10:26.825Z,31.67
2019-02-14T01:12:58.093Z,29.13
2019-02-14T01:15:29.610Z,22.60
2019-02-14T01:18:00.879Z,31.87
2019-02-14T01:20:32.174Z,30.33
2019-02-14T01:23:03.429Z,33.50
2019-02-14T01:25:35.109Z,30.07
2019-02-14T01:28:06.321Z,25.00
2019-02-14T01:30:37.752Z,18.57
2019-02-14T01:33:09.016Z,26.20
2019-02-14T01:35:41.985Z,20.40
2019-02-14T01:38:15.540Z,28.57
2019-02-14T01:40:46.871Z,29.00
2019-02-14T01:43:19.536Z,16.13
2019-02-14T01:45:50.946Z,30.00
2019-02-14T01:48:22.114Z,29.90
2019-02-14T01:50:53.441Z,35.80
2019-02-14T01:53:24.739Z,29.50
2019-02-14T01:55:56.020Z,31.13
2019-02-14T01:58:27.449Z,24.43
2019-02-14T02:00:58.903Z,28.63
2019-02-14T02:03:30.156Z,26.30
2019-02-14T02:06:01.487Z,31.60
2019-02-14T02:08:32.747Z,30.73
2019-02-14T02:11:04.050Z,17.17
2019-02-14T02:13:35.321Z,28.07
2019-02-14T02:16:08.134Z,29.57
2019-02-14T02:18:39.870Z,22.47
2019-02-14T02:21:14.369Z,31.17
2019-02-14T02:23:45.647Z,20.37
2019-02-14T02:26:16.947Z,31.47
2019-02-14T02:28:49.591Z,18.83
2019-02-14T02:31:20.888Z,22.17
2019-02-14T02:33:52.147Z,17.40
2019-02-14T02:36:23.435Z,31.10
2019-02-14T02:38:54.752Z,29.60
2019-02-14T02:41:26.059Z,30.30
2019-02-14T02:43:57.308Z,31.73
2019-02-14T02:46:28.750Z,31.93
2019-02-14T02:49:00.036Z,29.37
2019-02-14T02:51:31.309Z,29.13
2019-02-14T02:54:03.161Z,33.33
2019-02-14T02:56:34.454Z,22.73
2019-02-14T02:59:06.807Z,28.27
2019-02-14T03:01:38.218Z,30.70
2019-02-14T03:04:09.570Z,31.03
2019-02-14T03:06:40.731Z,32.27
2019-02-14T03:09:11.909Z,32.17
2019-02-14T03:11:43.167Z,28.20
2019-02-14T03:14:14.371Z,20.70
2019-02-14T03:16:46.759Z,12.77
2019-02-14T03:19:18.035Z,32.23
2019-02-14T03:21:49.338Z,31.17
2019-02-14T03:24:20.646Z,32.33
2019-02-14T03:26:52.026Z,35.97
2019-02-14T03:29:23.346Z,28.27
2019-02-14T03:31:54.718Z,28.70
2019-02-14T03:34:26.070Z,27.77
2019-02-14T03:36:57.443Z,24.33
2019-02-14T03:39:29.787Z,32.93
2019-02-14T03:42:01.080Z,32.33
2019-02-14T03:44:32.333Z,34.63
2019-02-14T03:47:03.623Z,14.33
2019-02-14T03:49:34.882Z,19.17
2019-02-14T03:52:06.218Z,31.63
2019-02-14T03:54:37.506Z,26.77
2019-02-14T03:57:08.838Z,33.07
2019-02-14T03:59:40.170Z,24.53
2019-02-14T04:02:12.862Z,30.73
2019-02-14T04:04:44.122Z,30.10
2019-02-14T04:07:15.729Z,33.37
2019-02-14T04:09:46.957Z,39.60
2019-02-14T04:12:18.262Z,33.77
2019-02-14T04:14:49.749Z,26.97
2019-02-14T04:17:24.650Z,33.00
2019-02-14T04:19:56.930Z,36.03
2019-02-14T04:22:28.265Z,32.33
2019-02-14T04:24:59.521Z,36.43
2019-02-14T04:27:30.826Z,34.67
2019-02-14T04:30:02.114Z,35.73
2019-02-14T04:32:33.405Z,35.93
2019-02-14T04:35:06.291Z,19.17
2019-02-14T04:37:38.968Z,37.57
2019-02-14T04:40:12.397Z,31.77
2019-02-14T04:42:49.043Z,27.83
2019-02-14T04:45:20.339Z,31.33
2019-02-14T04:47:51.608Z,36.07
2019-02-14T04:50:22.866Z,30.23
2019-02-14T04:52:54.166Z,17.43
2019-02-14T04:55:26.787Z,32.07
2019-02-14T04:57:58.120Z,35.97
2019-02-14T05:00:29.393Z,35.63
2019-02-14T05:03:00.709Z,33.87
2019-02-14T05:05:31.983Z,30.67
2019-02-14T05:08:03.269Z,32.93
2019-02-14T05:10:34.526Z,35.00
2019-02-14T05:13:06.065Z,19.20
2019-02-14T05:15:37.419Z,34.80
2019-02-14T05:18:09.042Z,32.90
2019-02-14T05:20:40.305Z,34.77
2019-02-14T05:23:11.623Z,37.53
2019-02-14T05:25:42.895Z,36.20
2019-02-14T05:28:14.264Z,36.97
2019-02-14T05:30:45.556Z,32.20
2019-02-14T05:33:16.858Z,29.10
2019-02-14T05:35:48.199Z,28.77
2019-02-14T05:38:19.610Z,39.13
2019-02-14T05:40:50.965Z,32.73
2019-02-14T05:43:22.247Z,26.80
2019-02-14T05:45:53.611Z,18.83
2019-02-14T05:48:24.999Z,23.97
2019-02-14T05:50:56.375Z,23.00
2019-02-14T05:53:27.701Z,32.27
2019-02-14T05:55:58.942Z,35.80
2019-02-14T05:58:30.238Z,32.43
2019-02-14T06:01:02.026Z,35.13
2019-02-14T06:03:33.326Z,32.23
2019-02-14T06:06:04.637Z,23.43
2019-02-14T06:08:35.998Z,27.10
2019-02-14T06:11:07.386Z,33.00
2019-02-14T06:13:38.730Z,31.63
2019-02-14T06:16:10.025Z,33.70
2019-02-14T06:18:41.417Z,35.77
2019-02-14T06:21:12.607Z,26.50
2019-02-14T06:23:43.807Z,20.73
2019-02-14T06:26:14.968Z,27.83
2019-02-14T06:28:46.253Z,25.30
2019-02-14T06:31:17.478Z,22.30
2019-02-14T06:33:48.746Z,16.13
2019-02-14T06:36:20.014Z,29.57
2019-02-14T06:38:51.307Z,32.23
2019-02-14T06:41:22.506Z,15.87
2019-02-14T06:43:53.789Z,27.63
2019-02-14T06:46:25.110Z,30.17
2019-02-14T06:48:56.398Z,23.33
2019-02-14T06:51:27.828Z,20.30
2019-02-14T06:53:59.116Z,27.70
2019-02-14T06:56:30.379Z,20.37
2019-02-14T06:59:01.688Z,25.17
2019-02-14T07:01:32.931Z,24.47
2019-02-14T07:04:04.258Z,23.50
2019-02-14T07:06:35.590Z,25.70
2019-02-14T07:09:06.884Z,20.50
2019-02-14T07:11:38.644Z,17.17
2019-02-14T07:14:10.027Z,19.60
2019-02-14T07:16:41.351Z,27.07
2019-02-14T07:19:12.777Z,26.47
2019-02-14T07:21:44.198Z,28.93
2019-02-14T07:24:15.635Z,27.77
2019-02-14T07:26:46.890Z,27.23
2019-02-14T07:29:18.172Z,21.07
2019-02-14T07:31:49.213Z,20.53
2019-02-14T07:34:20.531Z,24.87
2019-02-14T07:36:51.788Z,33.77
2019-02-14T07:39:23.066Z,28.80
2019-02-14T07:41:54.410Z,21.97
2019-02-14T07:44:25.706Z,33.77
2019-02-14T07:46:56.966Z,32.27
2019-02-14T07:49:28.322Z,28.97
2019-02-14T07:52:01.182Z,24.73
2019-02-14T07:54:32.478Z,28.63
2019-02-14T07:57:03.723Z,35.33
2019-02-14T07:59:35.036Z,28.83
2019-02-14T08:02:06.420Z,28.00
2019-02-14T08:04:37.909Z,28.37
2019-02-14T08:07:09.386Z,32.57
2019-02-14T08:09:40.717Z,27.50
2019-02-14T08:12:11.902Z,31.47
2019-02-14T08:14:43.256Z,24.90
2019-02-14T08:17:14.491Z,28.27
2019-02-14T08:19:45.930Z,30.50
2019-02-14T08:22:17.252Z,30.53
2019-02-14T08:24:49.011Z,34.83
2019-02-14T08:27:20.480Z,27.70
2019-02-14T08:29:51.873Z,32.27
2019-02-14T08:32:23.136Z,47.20
2019-02-14T08:34:54.435Z,30.27
2019-02-14T08:37:25.688Z,21.10
2019-02-14T08:39:57.017Z,25.08
2019-02-14T08:42:29.656Z,12.20
2019-02-14T08:45:00.954Z,23.83
2019-02-14T08:47:32.249Z,23.37
2019-02-14T08:50:03.555Z,23.40
2019-02-14T08:52:34.810Z,24.83
2019-02-14T08:55:10.072Z,24.20
2019-02-14T08:57:42.805Z,20.47
2019-02-14T09:00:15.616Z,22.07
2019-02-14T09:02:47.091Z,19.30
2019-02-14T09:05:18.427Z,21.17
2019-02-14T09:07:54.563Z,22.13
2019-02-14T09:10:22.749Z,19.27
2019-02-14T09:12:54.226Z,21.33
2019-02-14T09:15:25.597Z,18.37
2019-02-14T09:17:56.886Z,16.87
2019-02-14T09:20:28.230Z,16.53
2019-02-14T09:22:59.494Z,16.70
2019-02-14T09:25:30.781Z,17.33
2019-02-14T09:28:02.159Z,17.77
2019-02-14T09:30:33.535Z,14.87
2019-02-14T09:33:04.859Z,25.65
2019-02-14T09:35:36.186Z,13.57
2019-02-14T09:38:07.417Z,19.83
2019-02-14T09:40:38.706Z,17.32
2019-02-14T09:43:10.121Z,20.17
2019-02-14T09:45:41.405Z,23.83
2019-02-14T09:48:12.801Z,17.07
2019-02-14T09:50:44.090Z,17.60
2019-02-14T09:53:15.360Z,17.60
2019-02-14T09:55:46.762Z,18.05
2019-02-14T09:58:18.036Z,18.52
2019-02-14T10:00:49.373Z,17.10
2019-02-14T10:03:20.680Z,17.67
2019-02-14T10:05:52.069Z,17.93
2019-02-14T10:08:23.383Z,18.07
2019-02-14T10:10:54.772Z,20.10
2019-02-14T10:13:26.003Z,17.30
2019-02-14T10:15:57.484Z,20.30
2019-02-14T10:18:28.770Z,23.73
2019-02-14T10:21:00.079Z,19.83
2019-02-14T10:23:31.331Z,18.52
2019-02-14T10:26:02.625Z,16.20
2019-02-14T10:28:33.969Z,15.72
2019-02-14T10:31:06.687Z,19.97
2019-02-14T10:33:39.122Z,57.95
2019-02-14T10:36:10.451Z,20.97
2019-02-14T10:38:42.870Z,13.45
2019-02-14T10:41:16.942Z,17.93
2019-02-14T10:43:49.109Z,15.20
2019-02-14T10:46:20.570Z,17.03
2019-02-14T10:48:51.888Z,16.73
2019-02-14T10:51:23.278Z,17.13
2019-02-14T10:53:54.686Z,14.03
2019-02-14T10:56:25.966Z,17.07
2019-02-14T10:58:59.039Z,17.40
2019-02-14T11:01:30.387Z,17.65
2019-02-14T11:04:01.656Z,18.15
2019-02-14T11:06:32.966Z,14.45
2019-02-14T11:09:05.207Z,17.10
2019-02-14T11:11:36.587Z,13.00
2019-02-14T11:14:07.870Z,17.77
2019-02-14T11:16:39.178Z,13.13
2019-02-14T11:19:11.398Z,17.17
2019-02-14T11:21:42.745Z,17.80
2019-02-14T11:24:14.040Z,17.23
2019-02-14T11:26:45.370Z,8.95
2019-02-14T11:29:16.619Z,14.68
2019-02-14T11:31:49.343Z,16.10
2019-02-14T11:34:20.699Z,17.48
2019-02-14T11:36:52.023Z,12.65
2019-02-14T11:39:23.141Z,11.90
2019-02-14T11:41:54.442Z,10.60
2019-02-14T11:44:27.103Z,12.85
2019-02-14T11:46:58.452Z,11.83
2019-02-14T11:49:29.797Z,11.15
2019-02-14T11:52:01.017Z,13.48
2019-02-14T11:54:32.284Z,12.20
2019-02-14T11:57:05.590Z,11.65
2019-02-14T11:59:36.938Z,12.35
2019-02-14T12:02:08.530Z,11.73
2019-02-14T12:04:40.190Z,12.35
2019-02-14T12:07:12.879Z,13.75
2019-02-14T12:09:44.145Z,13.15
2019-02-14T12:12:15.516Z,11.97
2019-02-14T12:14:46.826Z,12.53
2019-02-14T12:17:18.151Z,11.63
2019-02-14T12:19:49.458Z,13.48
2019-02-14T12:22:20.859Z,11.80
2019-02-14T12:24:53.238Z,12.60
2019-02-14T12:27:24.545Z,13.20
2019-02-14T12:29:55.798Z,12.37
2019-02-14T12:32:27.146Z,11.48
2019-02-14T12:34:58.389Z,10.98
2019-02-14T12:37:29.707Z,12.25
2019-02-14T12:40:00.984Z,12.37
2019-02-14T12:42:32.369Z,10.55
2019-02-14T12:45:04.106Z,11.20
2019-02-14T12:47:38.485Z,10.90
2019-02-14T12:50:10.362Z,9.93
2019-02-14T12:52:41.659Z,10.15
2019-02-14T12:55:12.915Z,11.48
2019-02-14T12:57:44.362Z,11.48
2019-02-14T13:00:21.400Z,12.55
2019-02-14T13:03:10.755Z,13.10
2019-02-14T13:05:42.490Z,10.20
2019-02-14T13:08:13.936Z,8.98
2019-02-14T13:10:45.293Z,11.20
2019-02-14T13:13:16.590Z,13.18
2019-02-14T13:15:47.891Z,13.75
2019-02-14T13:18:19.288Z,8.83
2019-02-14T13:20:50.567Z,11.03
2019-02-14T13:23:21.921Z,10.03
2019-02-14T13:25:54.745Z,10.78
2019-02-14T13:28:26.069Z,13.88
2019-02-14T13:30:57.427Z,12.18
2019-02-14T13:33:28.819Z,11.22
2019-02-14T13:36:00.196Z,10.72
2019-02-14T13:38:31.610Z,12.47
2019-02-14T13:41:02.866Z,9.25
2019-02-14T13:43:34.847Z,11.50
2019-02-14T13:46:06.250Z,10.13
2019-02-14T13:48:37.569Z,9.50
2019-02-14T13:51:08.866Z,10.55
2019-02-14T13:53:40.178Z,16.30
2019-02-14T13:56:12.896Z,8.18
2019-02-14T13:58:47.321Z,12.98
2019-02-14T14:01:18.751Z,11.80
2019-02-14T14:03:50.106Z,10.45
2019-02-14T14:06:21.388Z,10.13
2019-02-14T14:08:54.099Z,7.65
2019-02-14T14:11:26.698Z,9.88
2019-02-14T14:13:58.054Z,10.13
2019-02-14T14:16:29.330Z,8.40
2019-02-14T14:19:06.447Z,10.75
2019-02-14T14:21:33.598Z,10.98
2019-02-14T14:24:04.932Z,11.15
2019-02-14T14:26:36.401Z,16.35
2019-02-14T14:29:07.687Z,10.85
2019-02-14T14:31:38.937Z,12.93
2019-02-14T14:34:13.472Z,10.82
2019-02-14T14:36:47.754Z,12.05
2019-02-14T14:39:19.699Z,11.95
2019-02-14T14:41:50.981Z,11.55
2019-02-14T14:44:23.851Z,11.40
2019-02-14T14:46:55.338Z,13.48
2019-02-14T14:49:28.239Z,11.65
2019-02-14T14:51:59.525Z,16.05
2019-02-14T14:54:30.934Z,11.12
2019-02-14T14:57:02.185Z,9.53
2019-02-14T14:59:33.652Z,15.28
2019-02-14T15:02:04.977Z,14.73
2019-02-14T15:04:36.326Z,16.50
2019-02-14T15:07:07.828Z,21.97
2019-02-14T15:09:39.235Z,16.52
2019-02-14T15:12:10.525Z,17.98
2019-02-14T15:14:41.865Z,17.77
2019-02-14T15:17:13.173Z,14.13
2019-02-14T15:19:44.481Z,27.80
2019-02-14T15:22:15.841Z,15.80
2019-02-14T15:24:47.227Z,15.03
2019-02-14T15:27:18.558Z,19.70
2019-02-14T15:29:49.901Z,21.65
2019-02-14T15:32:21.295Z,21.40
2019-02-14T15:34:52.672Z,19.03
2019-02-14T15:37:24.107Z,20.70
2019-02-14T15:39:55.499Z,18.27
2019-02-14T15:42:26.786Z,18.23
2019-02-14T15:44:58.041Z,20.70
2019-02-14T15:47:30.835Z,19.05
2019-02-14T15:50:05.622Z,18.97
2019-02-14T15:52:35.359Z,22.00
2019-02-14T15:55:07.871Z,32.73
2019-02-14T15:57:40.508Z,22.73
2019-02-14T16:00:13.641Z,31.13
2019-02-14T16:02:45.158Z,30.90
2019-02-14T16:05:19.068Z,26.83
2019-02-14T16:07:50.556Z,31.02
2019-02-14T16:10:22.003Z,27.70
2019-02-14T16:12:53.361Z,30.97
2019-02-14T16:15:24.720Z,31.13
2019-02-14T16:17:56.902Z,33.17
2019-02-14T16:20:28.710Z,40.23
2019-02-14T16:23:00.032Z,32.63
2019-02-14T16:25:31.300Z,35.10
2019-02-14T16:28:02.749Z,41.00
2019-02-14T16:30:33.994Z,46.43
2019-02-14T16:33:35.117Z,60.83
2019-02-14T16:36:15.719Z,43.07
2019-02-14T16:38:47.003Z,54.33
2019-02-14T16:41:18.266Z,58.03
2019-02-14T16:43:49.429Z,62.30
2019-02-14T16:46:20.744Z,48.87
2019-02-14T16:48:53.416Z,37.63
2019-02-14T16:51:24.811Z,34.97
2019-02-14T16:53:56.084Z,34.73
2019-02-14T16:56:27.457Z,31.47
2019-02-14T16:58:58.835Z,31.17
2019-02-14T17:01:30.090Z,55.37
2019-02-14T17:04:01.487Z,54.17
2019-02-14T17:06:32.966Z,62.97
2019-02-14T17:09:05.271Z,67.77
2019-02-14T17:11:38.026Z,70.20
2019-02-14T17:14:09.289Z,59.20
2019-02-14T17:16:40.594Z,65.33
2019-02-14T17:19:11.944Z,57.77
2019-02-14T17:21:43.762Z,55.63
2019-02-14T17:24:14.994Z,52.30
2019-02-14T17:26:46.378Z,39.40
2019-02-14T17:29:17.751Z,38.60
2019-02-14T17:31:48.838Z,38.67
2019-02-14T17:34:19.939Z,41.90
2019-02-14T17:36:51.059Z,50.20
2019-02-14T17:39:22.287Z,50.30
2019-02-14T17:41:53.480Z,58.27
2019-02-14T17:44:24.547Z,56.63
2019-02-14T17:46:55.906Z,54.43
2019-02-14T17:49:27.233Z,53.13
2019-02-14T17:51:58.603Z,54.73
2019-02-14T17:54:29.765Z,46.40
2019-02-14T17:57:01.010Z,51.57
2019-02-14T17:59:32.238Z,54.63
2019-02-14T18:02:03.458Z,55.57
2019-02-14T18:04:34.741Z,54.37
2019-02-14T18:07:06.026Z,44.20
2019-02-14T18:09:38.649Z,54.57
2019-02-14T18:12:09.962Z,50.07
2019-02-14T18:14:41.300Z,51.07
2019-02-14T18:17:12.456Z,52.37
2019-02-14T18:19:43.683Z,54.93
2019-02-14T18:22:15.061Z,56.30
2019-02-14T18:24:46.328Z,57.17
2019-02-14T18:27:17.632Z,57.90
2019-02-14T18:29:48.808Z,57.47
2019-02-14T18:32:20.008Z,56.87
2019-02-14T18:34:51.349Z,60.17
2019-02-14T18:37:22.633Z,58.97
2019-02-14T18:39:53.966Z,56.20
2019-02-14T18:42:26.237Z,64.83
2019-02-14T18:44:58.901Z,65.73
2019-02-14T18:47:30.191Z,60.60
2019-02-14T18:50:01.583Z,58.30
2019-02-14T18:52:34.034Z,55.60
2019-02-14T18:55:07.267Z,57.07
2019-02-14T18:57:38.472Z,53.33
2019-02-14T19:00:12.567Z,58.77
2019-02-14T19:02:44.930Z,77.07
2019-02-14T19:05:16.100Z,68.17
2019-02-14T19:07:47.422Z,61.13
2019-02-14T19:10:18.702Z,58.70
2019-02-14T19:12:51.142Z,61.67
2019-02-14T19:15:22.431Z,55.40
2019-02-14T19:17:53.623Z,48.63
2019-02-14T19:20:24.941Z,55.27
2019-02-14T19:22:56.250Z,53.77
2019-02-14T19:25:29.527Z,48.67
2019-02-14T19:28:00.385Z,51.87
2019-02-14T19:30:31.665Z,53.17
2019-02-14T19:33:02.966Z,54.90
2019-02-14T19:35:35.813Z,53.40
2019-02-14T19:38:07.184Z,48.97
2019-02-14T19:40:38.668Z,51.30
2019-02-14T19:43:09.961Z,65.97
2019-02-14T19:45:41.263Z,73.37
2019-02-14T19:48:12.599Z,59.13
2019-02-14T19:50:43.883Z,53.20
2019-02-14T19:53:15.244Z,48.90
2019-02-14T19:55:46.540Z,39.67
2019-02-14T19:58:18.056Z,39.03
2019-02-14T20:00:49.455Z,44.07
2019-02-14T20:03:20.801Z,40.70
2019-02-14T20:05:53.334Z,38.53
2019-02-14T20:08:24.663Z,37.17
2019-02-14T20:10:55.905Z,35.47
2019-02-14T20:13:27.351Z,36.30
2019-02-14T20:15:58.741Z,35.77
2019-02-14T20:18:30.234Z,33.87
2019-02-14T20:21:01.587Z,34.33
2019-02-14T20:23:33.002Z,32.07
2019-02-14T20:26:04.307Z,35.97
2019-02-14T20:28:36.893Z,38.87
2019-02-14T20:31:08.288Z,30.73
2019-02-14T20:33:39.579Z,36.77
2019-02-14T20:36:10.791Z,33.23
2019-02-14T20:38:42.210Z,31.53
2019-02-14T20:41:13.270Z,33.57
2019-02-14T20:43:44.691Z,33.37
2019-02-14T20:46:16.021Z,34.90
2019-02-14T20:48:47.293Z,33.00
2019-02-14T20:51:18.522Z,33.70
2019-02-14T20:53:49.824Z,33.70
2019-02-14T20:56:20.981Z,35.70
2019-02-14T20:58:54.422Z,33.37
2019-02-14T21:01:25.291Z,30.37
2019-02-14T21:03:57.569Z,37.07
2019-02-14T21:06:28.737Z,34.43
2019-02-14T21:09:00.247Z,33.77
2019-02-14T21:11:31.480Z,38.13
2019-02-14T21:14:02.681Z,37.67
2019-02-14T21:16:34.793Z,39.60
2019-02-14T21:19:07.496Z,35.60
2019-02-14T21:21:38.725Z,32.60
2019-02-14T21:24:10.096Z,38.17
2019-02-14T21:26:41.291Z,33.80
2019-02-14T21:29:12.407Z,38.90
2019-02-14T21:31:43.560Z,38.80
2019-02-14T21:34:14.845Z,35.67
2019-02-14T21:36:46.227Z,33.80
2019-02-14T21:39:17.559Z,36.87
2019-02-14T21:41:48.839Z,38.63
2019-02-14T21:44:20.220Z,37.53
2019-02-14T21:46:54.689Z,38.17
2019-02-14T21:49:25.970Z,38.73
2019-02-14T21:51:57.184Z,39.97
2019-02-14T21:54:28.485Z,39.77
2019-02-14T21:56:59.687Z,40.83
2019-02-14T21:59:30.957Z,41.17
2019-02-14T22:02:06.051Z,42.70
2019-02-14T22:04:34.980Z,46.90
2019-02-14T22:07:06.416Z,45.83
2019-02-14T22:09:37.646Z,49.80
2019-02-14T22:12:08.992Z,51.40
2019-02-14T22:14:40.341Z,49.23
2019-02-14T22:17:11.504Z,48.97
2019-02-14T22:19:43.077Z,43.17
2019-02-14T22:22:19.099Z,45.20
2019-02-14T22:24:50.276Z,41.77
2019-02-14T22:27:22.959Z,42.53
2019-02-14T22:29:54.290Z,40.53
2019-02-14T22:32:25.649Z,40.83
2019-02-14T22:34:56.961Z,38.30
2019-02-14T22:37:28.318Z,41.27
2019-02-14T22:40:00.623Z,42.23
2019-02-14T22:42:31.899Z,43.23
2019-02-14T22:45:03.328Z,42.00
2019-02-14T22:47:34.711Z,41.73
2019-02-14T22:50:08.022Z,40.17
2019-02-14T22:52:39.301Z,44.10
2019-02-14T22:55:11.819Z,43.83
2019-02-14T22:57:43.125Z,45.10
2019-02-14T23:00:30.410Z,44.40
2019-02-14T23:03:02.629Z,38.17
2019-02-14T23:05:34.038Z,38.90
2019-02-14T23:08:05.414Z,41.13
2019-02-14T23:10:36.789Z,34.48
2019-02-14T23:13:08.206Z,32.60
2019-02-14T23:15:39.529Z,35.03
2019-02-14T23:18:11.853Z,33.73
2019-02-14T23:20:43.186Z,35.53
2019-02-14T23:23:22.398Z,32.77
2019-02-14T23:25:49.620Z,35.63
2019-02-14T23:28:23.455Z,30.30
2019-02-14T23:30:54.850Z,33.60
2019-02-14T23:33:26.162Z,31.00
2019-02-14T23:35:57.591Z,32.87
2019-02-14T23:38:28.881Z,32.90
2019-02-14T23:41:00.066Z,32.93
2019-02-14T23:43:31.438Z,35.13
2019-02-14T23:46:02.758Z,36.57
2019-02-14T23:48:36.862Z,38.00
2019-02-14T23:51:08.241Z,35.87
2019-02-14T23:53:39.569Z,35.53
2019-02-14T23:56:10.869Z,36.30
2019-02-14T23:58:42.140Z,38.83
